Kezdőlap
METAR-TAF:

METAR-TAF

Repülőterek :

Clayton, Új-Mexikó, Amerikai Egyesült Államok

földrajzi szélesség: 36-26-54N, földrajzi hosszúság: 103-09-11W, magasság: 1513 m

Jelenlegi meteorológiai megfigyelések

A jelentés 39 perccel ezelõtt készült, 13:55 UTC
Északkeleti szél 10 kt
Hőmérséklet -2°C
Páratartalom 86%
Légköri nyomás 1023 hPa
Látótávolság: 16.1 km
Borult 1000 lábon

METAR: KCAO 181355Z AUTO 04010KT 10SM OVC010 M02/M04 A3020 RMK AO2 SLP238 T10171044

Idő: 07:34 (14:34 UTC)


TAF: hiányzik

Meteorológiai megfigyelések és előrejelzések több, mint 4000 repülőtéren (METAR és TAF jelentéseket).

A térképen piros és sárga pontok jelzik az elérhető meteorológiai állomásokat.

Mozgassa az egeret a pont fölött, hogy megjelenjen az állomás neve.

Azután kattintson az időjárási megfigyelések és előrejelzések megtekintéséhez.

A térkép megváltoztatása: kattintson a fekete keresztel jelölt zöld gombra ráközelítéshez, a vonallal jelölt zöld gombra távolításhoz, vagy a zöld nyilakra a szomszédos térképek eléréséhez.


METAR-TAF: